createdAt,value
2018-11-23T00:04:25.842Z,15.33
2018-11-23T00:09:44.316Z,15.73
2018-11-23T00:15:02.852Z,16.03
2018-11-23T00:20:22.648Z,17.00
2018-11-23T00:25:42.185Z,15.27
2018-11-23T00:30:59.729Z,15.03
2018-11-23T00:36:18.192Z,15.50
2018-11-23T00:41:36.987Z,15.00
2018-11-23T00:46:55.535Z,15.87
2018-11-23T00:52:14.064Z,16.57
2018-11-23T00:57:32.640Z,15.17
2018-11-23T01:02:51.268Z,15.37
2018-11-23T01:08:09.816Z,16.10
2018-11-23T01:13:28.337Z,15.73
2018-11-23T01:18:46.904Z,17.93
2018-11-23T01:24:05.520Z,15.27
2018-11-23T01:29:24.009Z,15.08
2018-11-23T01:34:42.543Z,15.70
2018-11-23T01:40:01.071Z,16.30
2018-11-23T01:45:19.593Z,16.27
2018-11-23T01:50:38.196Z,15.40
2018-11-23T01:55:56.774Z,15.03
2018-11-23T02:01:15.298Z,16.10
2018-11-23T02:06:33.794Z,14.97
2018-11-23T02:11:52.378Z,16.30
2018-11-23T02:17:10.995Z,15.55
2018-11-23T02:22:29.545Z,15.80
2018-11-23T02:27:48.003Z,16.50
2018-11-23T02:33:06.561Z,15.53
2018-11-23T02:38:25.077Z,15.88
2018-11-23T02:43:43.672Z,14.43
2018-11-23T02:49:02.167Z,16.00
2018-11-23T02:54:20.950Z,15.43
2018-11-23T02:59:39.517Z,15.37
2018-11-23T03:04:58.007Z,15.67
2018-11-23T03:10:17.155Z,14.25
2018-11-23T03:15:35.610Z,16.20
2018-11-23T03:20:54.149Z,15.53
2018-11-23T03:26:12.636Z,15.27
2018-11-23T03:31:31.219Z,15.03
2018-11-23T03:36:49.749Z,15.87
2018-11-23T03:42:08.364Z,16.30
2018-11-23T03:47:26.890Z,14.97
2018-11-23T03:52:45.660Z,16.87
2018-11-23T03:58:04.169Z,17.00
2018-11-23T04:03:22.663Z,16.80
2018-11-23T04:08:41.269Z,15.60
2018-11-23T04:13:59.763Z,17.30
2018-11-23T04:19:18.274Z,16.63
2018-11-23T04:24:36.759Z,18.10
2018-11-23T04:29:55.255Z,17.80
2018-11-23T04:35:15.089Z,18.07
2018-11-23T04:40:33.582Z,17.23
2018-11-23T04:45:52.279Z,17.43
2018-11-23T04:51:10.872Z,18.43
2018-11-23T04:56:29.416Z,17.33
2018-11-23T05:01:47.955Z,16.85
2018-11-23T05:07:06.455Z,17.73
2018-11-23T05:12:24.962Z,18.23
2018-11-23T05:17:43.696Z,17.97
2018-11-23T05:23:02.197Z,16.70
2018-11-23T05:28:20.788Z,17.27
2018-11-23T05:33:39.343Z,19.13
2018-11-23T05:38:57.839Z,17.43
2018-11-23T05:44:16.352Z,17.43
2018-11-23T05:49:34.839Z,19.07
2018-11-23T05:54:53.381Z,19.03
2018-11-23T06:00:14.936Z,19.80
2018-11-23T06:05:33.448Z,19.97
2018-11-23T06:10:51.974Z,20.45
2018-11-23T06:16:10.520Z,19.37
2018-11-23T06:21:29.068Z,19.30
2018-11-23T06:26:47.688Z,19.13
2018-11-23T06:32:16.241Z,18.40
2018-11-23T06:37:34.764Z,20.20
2018-11-23T06:42:53.269Z,20.07
2018-11-23T06:48:12.147Z,19.13
2018-11-23T06:53:30.665Z,17.70
2018-11-23T06:58:49.180Z,18.43
2018-11-23T07:04:07.665Z,18.97
2018-11-23T07:09:26.156Z,20.27
2018-11-23T07:14:44.679Z,19.50
2018-11-23T07:20:03.295Z,19.67
2018-11-23T07:25:21.814Z,18.62
2018-11-23T07:30:40.348Z,20.10
2018-11-23T07:35:59.288Z,22.40
2018-11-23T07:41:29.072Z,19.40
2018-11-23T07:46:47.652Z,19.67
2018-11-23T07:52:06.288Z,18.83
2018-11-23T07:57:24.748Z,21.70
2018-11-23T08:02:43.828Z,20.87
2018-11-23T08:08:02.332Z,21.63
2018-11-23T08:13:20.999Z,22.40
2018-11-23T08:18:39.546Z,20.43
2018-11-23T08:23:58.083Z,20.05
2018-11-23T08:29:16.628Z,20.37
2018-11-23T08:34:35.133Z,20.27
2018-11-23T08:39:53.642Z,20.10
2018-11-23T08:45:13.912Z,20.35
2018-11-23T08:50:32.489Z,20.03
2018-11-23T08:55:51.015Z,20.50
2018-11-23T09:01:09.544Z,19.80
2018-11-23T09:06:28.072Z,19.55
2018-11-23T09:11:46.624Z,19.10
2018-11-23T09:17:05.337Z,19.93
2018-11-23T09:22:23.869Z,20.20
2018-11-23T09:27:42.496Z,19.80
2018-11-23T09:33:01.166Z,20.13
2018-11-23T09:38:19.688Z,20.07
2018-11-23T09:43:38.283Z,19.33
2018-11-23T09:48:56.864Z,18.00
2018-11-23T09:54:15.665Z,18.90
2018-11-23T09:59:34.147Z,17.60
2018-11-23T10:04:53.624Z,17.97
2018-11-23T10:10:13.103Z,18.55
2018-11-23T10:15:32.499Z,20.10
2018-11-23T10:20:51.003Z,16.90
2018-11-23T10:26:09.515Z,17.37
2018-11-23T10:31:28.214Z,17.07
2018-11-23T10:36:48.023Z,17.90
2018-11-23T10:42:07.275Z,16.87
2018-11-23T10:47:25.730Z,17.30
2018-11-23T10:52:44.352Z,16.00
2018-11-23T10:58:02.920Z,15.48
2018-11-23T11:03:37.649Z,13.07
2018-11-23T11:08:56.182Z,14.17
2018-11-23T11:14:14.790Z,13.20
2018-11-23T11:19:33.266Z,13.70
2018-11-23T11:24:51.733Z,12.87
2018-11-23T11:30:12.364Z,12.65
2018-11-23T11:35:30.909Z,13.03
2018-11-23T11:40:49.426Z,16.00
2018-11-23T11:46:08.404Z,14.27
2018-11-23T11:51:27.055Z,14.53
2018-11-23T11:56:45.571Z,14.13
2018-11-23T12:02:06.683Z,14.93
2018-11-23T12:07:22.712Z,15.57
2018-11-23T12:12:41.265Z,15.83
2018-11-23T12:17:59.795Z,17.30
2018-11-23T12:23:18.277Z,16.47
2018-11-23T12:28:36.776Z,16.40
2018-11-23T12:33:55.278Z,16.27
2018-11-23T12:39:13.792Z,15.17
2018-11-23T12:44:32.333Z,15.70
2018-11-23T12:49:50.833Z,16.10
2018-11-23T12:55:10.036Z,16.40
2018-11-23T13:00:29.460Z,14.23
2018-11-23T13:05:48.033Z,15.07
2018-11-23T13:11:06.555Z,13.93
2018-11-23T13:16:25.466Z,16.03
2018-11-23T13:21:44.036Z,14.90
2018-11-23T13:27:02.574Z,15.97
2018-11-23T13:32:21.100Z,16.00
2018-11-23T13:37:39.598Z,15.50
2018-11-23T13:42:59.053Z,14.73
2018-11-23T13:48:20.091Z,10.83
2018-11-23T13:53:36.052Z,7.65
2018-11-23T13:58:54.603Z,6.60
2018-11-23T14:04:13.120Z,6.43
2018-11-23T14:09:31.637Z,6.53
2018-11-23T14:14:50.088Z,6.20
2018-11-23T14:20:10.653Z,5.90
2018-11-23T14:25:30.805Z,5.87
2018-11-23T14:30:49.420Z,8.90
2018-11-23T14:36:07.947Z,7.10
2018-11-23T14:41:26.739Z,14.50
2018-11-23T14:46:45.436Z,14.17
2018-11-23T14:52:03.961Z,16.27
2018-11-23T14:57:22.478Z,17.47
2018-11-23T15:02:41.199Z,16.80
2018-11-23T15:07:59.754Z,15.43
2018-11-23T15:13:18.315Z,16.07
2018-11-23T15:18:36.811Z,17.20
2018-11-23T15:23:55.389Z,17.13
2018-11-23T15:29:14.292Z,20.03
2018-11-23T15:34:32.781Z,16.00
2018-11-23T15:39:51.244Z,10.40
2018-11-23T15:45:13.082Z,8.57
2018-11-23T15:50:33.806Z,7.80
2018-11-23T15:55:52.449Z,7.77
2018-11-23T16:01:11.016Z,7.37
2018-11-23T16:06:29.532Z,7.50
2018-11-23T16:11:48.070Z,7.67
2018-11-23T16:17:06.586Z,9.13
2018-11-23T16:22:25.060Z,10.93
2018-11-23T16:27:44.659Z,10.40
2018-11-23T16:33:04.508Z,11.00
2018-11-23T16:38:24.085Z,11.60
2018-11-23T16:43:42.581Z,11.60
2018-11-23T16:49:01.062Z,10.93
2018-11-23T16:54:19.624Z,12.30
2018-11-23T16:59:38.225Z,11.70
2018-11-23T17:04:56.760Z,11.07
2018-11-23T17:10:16.468Z,10.70
2018-11-23T17:15:35.063Z,12.20
2018-11-23T17:20:53.822Z,13.10
2018-11-23T17:26:12.323Z,11.97
2018-11-23T17:31:30.868Z,11.97
2018-11-23T17:36:49.392Z,12.27
2018-11-23T17:42:07.918Z,13.00
2018-11-23T17:47:26.417Z,11.87
2018-11-23T17:52:45.495Z,12.10
2018-11-23T17:58:04.127Z,13.00
2018-11-23T18:08:48.680Z,18.00
2018-11-23T18:14:07.512Z,14.27
2018-11-23T18:19:26.512Z,12.25
2018-11-23T18:24:45.487Z,11.50
2018-11-23T18:30:05.078Z,12.87
2018-11-23T18:35:24.110Z,13.60
2018-11-23T18:40:42.718Z,14.33
2018-11-23T18:46:01.247Z,12.57
2018-11-23T18:51:19.768Z,12.53
2018-11-23T18:56:38.379Z,12.57
2018-11-23T19:01:57.019Z,16.93
2018-11-23T19:07:15.578Z,17.43
2018-11-23T19:12:34.192Z,14.30
2018-11-23T19:17:52.793Z,11.67
2018-11-23T19:23:11.548Z,12.20
2018-11-23T19:28:30.366Z,22.33
2018-11-23T19:33:48.971Z,31.27
2018-11-23T19:39:08.601Z,30.37
2018-11-23T19:44:27.154Z,25.83
2018-11-23T19:49:45.685Z,15.23
2018-11-23T19:55:05.226Z,18.17
2018-11-23T20:00:24.945Z,14.87
2018-11-23T20:05:43.561Z,15.50
2018-11-23T20:11:02.161Z,15.73
2018-11-23T20:16:20.715Z,18.13
2018-11-23T20:21:39.374Z,17.17
2018-11-23T20:26:58.216Z,14.80
2018-11-23T20:32:16.840Z,15.00
2018-11-23T20:37:36.097Z,12.83
2018-11-23T20:42:54.839Z,12.50
2018-11-23T20:48:13.523Z,13.00
2018-11-23T20:53:32.356Z,13.77
2018-11-23T20:58:51.072Z,12.53
2018-11-23T21:04:09.632Z,11.97
2018-11-23T21:09:31.215Z,14.63
2018-11-23T21:14:47.095Z,12.00
2018-11-23T21:20:06.789Z,12.63
2018-11-23T21:25:25.354Z,14.33
2018-11-23T21:30:43.869Z,16.03
2018-11-23T21:36:02.368Z,15.60
2018-11-23T21:41:20.916Z,12.87
2018-11-23T21:46:39.629Z,12.47
2018-11-23T21:51:58.136Z,11.48
2018-11-23T21:57:16.684Z,10.30
2018-11-23T22:02:35.241Z,9.67
2018-11-23T22:07:53.761Z,11.87
2018-11-23T22:13:12.257Z,19.20
2018-11-23T22:18:30.751Z,14.80
2018-11-23T22:23:49.240Z,11.03
2018-11-23T22:29:07.721Z,12.30
2018-11-23T22:34:26.328Z,15.50
2018-11-23T22:39:44.877Z,14.60
2018-11-23T22:45:03.428Z,12.93
2018-11-23T22:50:23.761Z,11.20
2018-11-23T22:55:42.287Z,12.00
2018-11-23T23:01:02.993Z,10.07
2018-11-23T23:06:21.479Z,10.00
2018-11-23T23:11:39.975Z,10.72
2018-11-23T23:16:58.615Z,10.23
2018-11-23T23:22:17.104Z,10.43
2018-11-23T23:27:35.634Z,10.77
2018-11-23T23:32:54.133Z,9.07
2018-11-23T23:38:12.647Z,10.40
2018-11-23T23:43:31.169Z,9.83
2018-11-23T23:48:49.690Z,10.03
2018-11-23T23:54:08.192Z,9.60
2018-11-23T23:59:26.667Z,10.53
